Fisher Island, Florida
Current Conditions -  °F | °C
As of 12:53 PM on Sunday 21 Dec 2014 (Local Time) from KMIA Reporting Station
Broken Clouds Broken Clouds  
Wind Chill: 78°   Ceiling: 12000
Heat Index: 80°   Visibility: 10mi
Dew Point: 64°   Wind: 9mph
Humidity: 62%   Direction: 110°ESE
Pressure: 30.07"   Gusts: NA
Location:  25.784°N, 80.1359°W
Report Text: KMIA 211753Z 11008KT 10SM SCT030 BKN120 BKN250 26/18 A3007 RMK AO2 SLP184 T02560178 10267 20189 58014
Loading
Personal Weather Stations






























Interactive Weather Map New forecast layout! Learn more

10-Day Weather Forecast

Advertisements
Track Severe Weather on mobile